sensor_id;sensor_type;location;lat;lon;timestamp;P1;durP1;ratioP1;P2;durP2;ratioP2
8861;SDS011;4799;50.996;4.754;2024-02-16T00:01:32;2.67;;;2.23;;
8861;SDS011;4799;50.996;4.754;2024-02-16T00:03:58;3.27;;;2.17;;
8861;SDS011;4799;50.996;4.754;2024-02-16T00:06:23;3.07;;;2.10;;
8861;SDS011;4799;50.996;4.754;2024-02-16T00:08:49;2.40;;;2.20;;
8861;SDS011;4799;50.996;4.754;2024-02-16T00:11:15;3.57;;;2.33;;
8861;SDS011;4799;50.996;4.754;2024-02-16T00:13:41;3.40;;;1.90;;
8861;SDS011;4799;50.996;4.754;2024-02-16T00:16:06;2.47;;;2.20;;
8861;SDS011;4799;50.996;4.754;2024-02-16T00:18:32;4.03;;;1.93;;
8861;SDS011;4799;50.996;4.754;2024-02-16T00:20:58;3.10;;;2.23;;
8861;SDS011;4799;50.996;4.754;2024-02-16T00:23:24;2.67;;;2.07;;
8861;SDS011;4799;50.996;4.754;2024-02-16T00:25:50;2.97;;;2.03;;
8861;SDS011;4799;50.996;4.754;2024-02-16T00:28:16;2.30;;;2.10;;
8861;SDS011;4799;50.996;4.754;2024-02-16T00:30:42;3.33;;;2.30;;
8861;SDS011;4799;50.996;4.754;2024-02-16T00:33:07;3.70;;;2.27;;
8861;SDS011;4799;50.996;4.754;2024-02-16T00:35:33;2.43;;;1.93;;
8861;SDS011;4799;50.996;4.754;2024-02-16T00:37:59;2.40;;;2.00;;
8861;SDS011;4799;50.996;4.754;2024-02-16T00:40:25;2.70;;;2.30;;
8861;SDS011;4799;50.996;4.754;2024-02-16T00:42:54;2.60;;;2.20;;
8861;SDS011;4799;50.996;4.754;2024-02-16T00:45:20;2.00;;;1.80;;
8861;SDS011;4799;50.996;4.754;2024-02-16T00:47:46;2.43;;;2.23;;
8861;SDS011;4799;50.996;4.754;2024-02-16T00:50:14;2.10;;;1.90;;
8861;SDS011;4799;50.996;4.754;2024-02-16T00:52:40;2.50;;;2.27;;
8861;SDS011;4799;50.996;4.754;2024-02-16T00:55:06;3.23;;;1.90;;
8861;SDS011;4799;50.996;4.754;2024-02-16T00:57:32;2.20;;;2.00;;
8861;SDS011;4799;50.996;4.754;2024-02-16T00:59:59;4.80;;;2.67;;
8861;SDS011;4799;50.996;4.754;2024-02-16T01:02:25;4.20;;;2.50;;
8861;SDS011;4799;50.996;4.754;2024-02-16T01:04:51;4.67;;;2.27;;
8861;SDS011;4799;50.996;4.754;2024-02-16T01:07:16;2.87;;;2.30;;
8861;SDS011;4799;50.996;4.754;2024-02-16T01:09:42;3.10;;;2.40;;
8861;SDS011;4799;50.996;4.754;2024-02-16T01:12:08;4.10;;;2.47;;
8861;SDS011;4799;50.996;4.754;2024-02-16T01:14:34;2.90;;;2.10;;
8861;SDS011;4799;50.996;4.754;2024-02-16T01:17:00;3.20;;;2.20;;
8861;SDS011;4799;50.996;4.754;2024-02-16T01:19:25;2.90;;;2.40;;
8861;SDS011;4799;50.996;4.754;2024-02-16T01:21:51;4.23;;;2.30;;
8861;SDS011;4799;50.996;4.754;2024-02-16T01:24:19;2.77;;;2.17;;
8861;SDS011;4799;50.996;4.754;2024-02-16T01:26:46;2.60;;;2.30;;
8861;SDS011;4799;50.996;4.754;2024-02-16T01:29:11;3.23;;;2.33;;
8861;SDS011;4799;50.996;4.754;2024-02-16T01:31:37;2.73;;;2.27;;
8861;SDS011;4799;50.996;4.754;2024-02-16T01:34:03;3.57;;;2.27;;
8861;SDS011;4799;50.996;4.754;2024-02-16T01:36:29;2.73;;;2.43;;
8861;SDS011;4799;50.996;4.754;2024-02-16T01:38:54;3.13;;;2.40;;
8861;SDS011;4799;50.996;4.754;2024-02-16T01:41:20;3.17;;;2.23;;
8861;SDS011;4799;50.996;4.754;2024-02-16T01:43:46;2.63;;;2.10;;
8861;SDS011;4799;50.996;4.754;2024-02-16T01:46:11;2.80;;;2.30;;
8861;SDS011;4799;50.996;4.754;2024-02-16T01:48:37;5.57;;;2.30;;
8861;SDS011;4799;50.996;4.754;2024-02-16T01:51:06;3.60;;;2.40;;
8861;SDS011;4799;50.996;4.754;2024-02-16T01:53:34;3.70;;;2.40;;
8861;SDS011;4799;50.996;4.754;2024-02-16T01:56:02;3.47;;;2.40;;
8861;SDS011;4799;50.996;4.754;2024-02-16T01:58:27;2.83;;;2.23;;
8861;SDS011;4799;50.996;4.754;2024-02-16T02:00:53;3.67;;;2.47;;
8861;SDS011;4799;50.996;4.754;2024-02-16T02:03:19;3.80;;;2.57;;
8861;SDS011;4799;50.996;4.754;2024-02-16T02:05:45;3.00;;;2.50;;
8861;SDS011;4799;50.996;4.754;2024-02-16T02:08:12;5.80;;;2.57;;
8861;SDS011;4799;50.996;4.754;2024-02-16T02:10:38;3.73;;;2.30;;
8861;SDS011;4799;50.996;4.754;2024-02-16T02:13:04;3.17;;;2.20;;
8861;SDS011;4799;50.996;4.754;2024-02-16T02:15:29;3.47;;;2.17;;
8861;SDS011;4799;50.996;4.754;2024-02-16T02:17:55;3.23;;;2.20;;
8861;SDS011;4799;50.996;4.754;2024-02-16T02:20:23;2.83;;;2.23;;
8861;SDS011;4799;50.996;4.754;2024-02-16T02:22:49;3.07;;;2.37;;
8861;SDS011;4799;50.996;4.754;2024-02-16T02:25:14;2.40;;;2.13;;
8861;SDS011;4799;50.996;4.754;2024-02-16T02:27:40;3.17;;;2.30;;
8861;SDS011;4799;50.996;4.754;2024-02-16T02:30:06;3.20;;;2.53;;
8861;SDS011;4799;50.996;4.754;2024-02-16T02:32:32;5.03;;;2.37;;
8861;SDS011;4799;50.996;4.754;2024-02-16T02:34:58;2.60;;;2.40;;
8861;SDS011;4799;50.996;4.754;2024-02-16T02:37:23;3.37;;;2.37;;
8861;SDS011;4799;50.996;4.754;2024-02-16T02:39:49;2.93;;;2.20;;
8861;SDS011;4799;50.996;4.754;2024-02-16T02:42:15;2.90;;;2.57;;
8861;SDS011;4799;50.996;4.754;2024-02-16T02:44:40;3.63;;;2.40;;
8861;SDS011;4799;50.996;4.754;2024-02-16T02:47:09;3.50;;;2.70;;
8861;SDS011;4799;50.996;4.754;2024-02-16T02:49:35;3.40;;;2.47;;
8861;SDS011;4799;50.996;4.754;2024-02-16T02:52:00;3.50;;;2.30;;
8861;SDS011;4799;50.996;4.754;2024-02-16T02:54:27;3.37;;;2.50;;
8861;SDS011;4799;50.996;4.754;2024-02-16T02:56:52;3.33;;;2.50;;
8861;SDS011;4799;50.996;4.754;2024-02-16T02:59:18;2.43;;;2.23;;
8861;SDS011;4799;50.996;4.754;2024-02-16T03:01:44;4.80;;;2.57;;
8861;SDS011;4799;50.996;4.754;2024-02-16T03:04:10;4.10;;;2.53;;
8861;SDS011;4799;50.996;4.754;2024-02-16T03:06:36;2.80;;;2.60;;
8861;SDS011;4799;50.996;4.754;2024-02-16T03:09:02;3.17;;;2.43;;
8861;SDS011;4799;50.996;4.754;2024-02-16T03:11:28;3.20;;;2.67;;
8861;SDS011;4799;50.996;4.754;2024-02-16T03:13:54;3.17;;;2.43;;
8861;SDS011;4799;50.996;4.754;2024-02-16T03:16:19;4.70;;;2.70;;
8861;SDS011;4799;50.996;4.754;2024-02-16T03:18:45;3.70;;;2.47;;
8861;SDS011;4799;50.996;4.754;2024-02-16T03:21:14;5.40;;;2.60;;
8861;SDS011;4799;50.996;4.754;2024-02-16T03:23:43;3.00;;;2.70;;
8861;SDS011;4799;50.996;4.754;2024-02-16T03:26:15;3.50;;;2.57;;
8861;SDS011;4799;50.996;4.754;2024-02-16T03:28:45;3.00;;;2.57;;
8861;SDS011;4799;50.996;4.754;2024-02-16T03:31:22;2.90;;;2.30;;
8861;SDS011;4799;50.996;4.754;2024-02-16T03:33:49;3.80;;;2.33;;
8861;SDS011;4799;50.996;4.754;2024-02-16T03:36:16;3.13;;;2.33;;
8861;SDS011;4799;50.996;4.754;2024-02-16T03:38:44;3.27;;;2.40;;
8861;SDS011;4799;50.996;4.754;2024-02-16T03:41:14;3.27;;;2.57;;
8861;SDS011;4799;50.996;4.754;2024-02-16T03:43:43;3.67;;;2.60;;
8861;SDS011;4799;50.996;4.754;2024-02-16T03:46:08;3.20;;;2.40;;
8861;SDS011;4799;50.996;4.754;2024-02-16T03:48:34;4.60;;;2.50;;
8861;SDS011;4799;50.996;4.754;2024-02-16T03:51:00;4.73;;;2.77;;
8861;SDS011;4799;50.996;4.754;2024-02-16T03:53:28;4.60;;;2.60;;
8861;SDS011;4799;50.996;4.754;2024-02-16T03:55:54;3.63;;;2.50;;
8861;SDS011;4799;50.996;4.754;2024-02-16T03:58:21;3.37;;;2.37;;
8861;SDS011;4799;50.996;4.754;2024-02-16T04:00:47;4.90;;;3.00;;
8861;SDS011;4799;50.996;4.754;2024-02-16T04:03:16;4.70;;;2.90;;
8861;SDS011;4799;50.996;4.754;2024-02-16T04:05:42;3.07;;;2.70;;
8861;SDS011;4799;50.996;4.754;2024-02-16T04:08:08;4.33;;;2.87;;
8861;SDS011;4799;50.996;4.754;2024-02-16T04:10:33;4.47;;;2.57;;
8861;SDS011;4799;50.996;4.754;2024-02-16T04:13:00;3.17;;;2.60;;
8861;SDS011;4799;50.996;4.754;2024-02-16T04:15:26;3.17;;;2.60;;
8861;SDS011;4799;50.996;4.754;2024-02-16T04:17:52;3.47;;;2.57;;
8861;SDS011;4799;50.996;4.754;2024-02-16T04:20:19;3.50;;;2.80;;
8861;SDS011;4799;50.996;4.754;2024-02-16T04:22:45;4.00;;;2.73;;
8861;SDS011;4799;50.996;4.754;2024-02-16T04:25:10;4.90;;;2.80;;
8861;SDS011;4799;50.996;4.754;2024-02-16T04:27:36;5.50;;;3.00;;
8861;SDS011;4799;50.996;4.754;2024-02-16T04:30:03;4.97;;;3.00;;
8861;SDS011;4799;50.996;4.754;2024-02-16T04:32:29;4.53;;;2.77;;
8861;SDS011;4799;50.996;4.754;2024-02-16T04:34:55;5.23;;;2.93;;
8861;SDS011;4799;50.996;4.754;2024-02-16T04:37:21;4.80;;;3.10;;
8861;SDS011;4799;50.996;4.754;2024-02-16T04:39:48;3.17;;;2.47;;
8861;SDS011;4799;50.996;4.754;2024-02-16T04:42:14;6.23;;;3.07;;
8861;SDS011;4799;50.996;4.754;2024-02-16T04:44:40;6.20;;;2.73;;
8861;SDS011;4799;50.996;4.754;2024-02-16T04:47:06;2.97;;;2.67;;
8861;SDS011;4799;50.996;4.754;2024-02-16T04:49:32;4.30;;;2.70;;
8861;SDS011;4799;50.996;4.754;2024-02-16T04:51:58;3.30;;;2.67;;
8861;SDS011;4799;50.996;4.754;2024-02-16T04:54:23;4.17;;;3.03;;
8861;SDS011;4799;50.996;4.754;2024-02-16T04:56:50;4.37;;;2.83;;
8861;SDS011;4799;50.996;4.754;2024-02-16T04:59:19;4.23;;;2.90;;
8861;SDS011;4799;50.996;4.754;2024-02-16T05:01:44;3.67;;;2.80;;
8861;SDS011;4799;50.996;4.754;2024-02-16T05:04:10;3.60;;;2.70;;
8861;SDS011;4799;50.996;4.754;2024-02-16T05:06:41;5.03;;;3.00;;
8861;SDS011;4799;50.996;4.754;2024-02-16T05:09:07;4.13;;;3.20;;
8861;SDS011;4799;50.996;4.754;2024-02-16T05:11:33;3.47;;;2.63;;
8861;SDS011;4799;50.996;4.754;2024-02-16T05:13:59;4.27;;;3.17;;
8861;SDS011;4799;50.996;4.754;2024-02-16T05:16:25;4.73;;;2.77;;
8861;SDS011;4799;50.996;4.754;2024-02-16T05:18:51;3.23;;;2.93;;
8861;SDS011;4799;50.996;4.754;2024-02-16T05:21:17;4.57;;;3.00;;
8861;SDS011;4799;50.996;4.754;2024-02-16T05:23:43;6.10;;;3.00;;
8861;SDS011;4799;50.996;4.754;2024-02-16T05:26:08;6.03;;;3.17;;
8861;SDS011;4799;50.996;4.754;2024-02-16T05:28:34;5.30;;;3.20;;
8861;SDS011;4799;50.996;4.754;2024-02-16T05:31:04;5.13;;;3.20;;
8861;SDS011;4799;50.996;4.754;2024-02-16T05:33:43;4.93;;;3.27;;
8861;SDS011;4799;50.996;4.754;2024-02-16T05:36:10;3.80;;;2.93;;
8861;SDS011;4799;50.996;4.754;2024-02-16T05:38:36;4.83;;;3.00;;
8861;SDS011;4799;50.996;4.754;2024-02-16T05:41:09;3.43;;;2.90;;
8861;SDS011;4799;50.996;4.754;2024-02-16T05:43:36;6.27;;;3.33;;
8861;SDS011;4799;50.996;4.754;2024-02-16T05:46:03;5.60;;;3.10;;
8861;SDS011;4799;50.996;4.754;2024-02-16T05:48:32;5.10;;;3.20;;
8861;SDS011;4799;50.996;4.754;2024-02-16T05:51:02;3.43;;;2.97;;
8861;SDS011;4799;50.996;4.754;2024-02-16T05:53:28;5.83;;;3.20;;
8861;SDS011;4799;50.996;4.754;2024-02-16T05:55:54;5.87;;;3.13;;
8861;SDS011;4799;50.996;4.754;2024-02-16T05:58:20;3.87;;;2.63;;
8861;SDS011;4799;50.996;4.754;2024-02-16T06:00:46;4.63;;;3.10;;
8861;SDS011;4799;50.996;4.754;2024-02-16T06:03:13;4.10;;;3.20;;
8861;SDS011;4799;50.996;4.754;2024-02-16T06:05:39;3.73;;;2.80;;
8861;SDS011;4799;50.996;4.754;2024-02-16T06:08:11;4.33;;;3.23;;
8861;SDS011;4799;50.996;4.754;2024-02-16T06:10:37;6.43;;;3.03;;
8861;SDS011;4799;50.996;4.754;2024-02-16T06:13:03;4.90;;;3.17;;
8861;SDS011;4799;50.996;4.754;2024-02-16T06:15:28;4.23;;;3.03;;
8861;SDS011;4799;50.996;4.754;2024-02-16T06:17:55;4.27;;;3.07;;
8861;SDS011;4799;50.996;4.754;2024-02-16T06:20:21;3.87;;;3.00;;
8861;SDS011;4799;50.996;4.754;2024-02-16T06:22:47;3.97;;;3.20;;
8861;SDS011;4799;50.996;4.754;2024-02-16T06:25:13;5.40;;;3.10;;
8861;SDS011;4799;50.996;4.754;2024-02-16T06:27:40;5.00;;;3.20;;
8861;SDS011;4799;50.996;4.754;2024-02-16T06:30:06;4.10;;;3.13;;
8861;SDS011;4799;50.996;4.754;2024-02-16T06:32:35;5.17;;;3.10;;
8861;SDS011;4799;50.996;4.754;2024-02-16T06:35:01;4.90;;;3.03;;
8861;SDS011;4799;50.996;4.754;2024-02-16T06:37:27;3.43;;;2.97;;
8861;SDS011;4799;50.996;4.754;2024-02-16T06:39:53;4.83;;;3.30;;
8861;SDS011;4799;50.996;4.754;2024-02-16T06:42:19;5.10;;;3.00;;
8861;SDS011;4799;50.996;4.754;2024-02-16T06:44:44;5.53;;;3.30;;
8861;SDS011;4799;50.996;4.754;2024-02-16T06:47:10;3.30;;;2.90;;
8861;SDS011;4799;50.996;4.754;2024-02-16T06:49:36;5.40;;;3.30;;
8861;SDS011;4799;50.996;4.754;2024-02-16T06:52:02;4.57;;;3.50;;
8861;SDS011;4799;50.996;4.754;2024-02-16T06:54:28;4.40;;;3.40;;
8861;SDS011;4799;50.996;4.754;2024-02-16T06:56:53;4.03;;;3.30;;
8861;SDS011;4799;50.996;4.754;2024-02-16T06:59:19;5.30;;;3.60;;
8861;SDS011;4799;50.996;4.754;2024-02-16T07:01:45;5.33;;;3.70;;
8861;SDS011;4799;50.996;4.754;2024-02-16T07:04:10;5.60;;;3.40;;
8861;SDS011;4799;50.996;4.754;2024-02-16T07:06:36;4.93;;;3.47;;
8861;SDS011;4799;50.996;4.754;2024-02-16T07:09:03;4.93;;;3.20;;
8861;SDS011;4799;50.996;4.754;2024-02-16T07:11:29;7.23;;;3.33;;
8861;SDS011;4799;50.996;4.754;2024-02-16T07:13:54;4.00;;;3.00;;
8861;SDS011;4799;50.996;4.754;2024-02-16T07:16:21;5.07;;;3.40;;
8861;SDS011;4799;50.996;4.754;2024-02-16T07:18:46;7.37;;;3.70;;
8861;SDS011;4799;50.996;4.754;2024-02-16T07:21:12;5.43;;;3.80;;
8861;SDS011;4799;50.996;4.754;2024-02-16T07:23:38;5.60;;;3.50;;
8861;SDS011;4799;50.996;4.754;2024-02-16T07:26:03;4.77;;;3.60;;
8861;SDS011;4799;50.996;4.754;2024-02-16T07:28:30;4.40;;;3.63;;
8861;SDS011;4799;50.996;4.754;2024-02-16T07:30:56;5.43;;;3.77;;
8861;SDS011;4799;50.996;4.754;2024-02-16T07:33:22;5.27;;;3.80;;
8861;SDS011;4799;50.996;4.754;2024-02-16T07:35:49;5.80;;;3.90;;
8861;SDS011;4799;50.996;4.754;2024-02-16T07:38:16;6.07;;;3.80;;
8861;SDS011;4799;50.996;4.754;2024-02-16T07:40:42;4.73;;;3.50;;
8861;SDS011;4799;50.996;4.754;2024-02-16T07:43:10;5.13;;;3.43;;
8861;SDS011;4799;50.996;4.754;2024-02-16T07:45:36;5.63;;;3.40;;
8861;SDS011;4799;50.996;4.754;2024-02-16T07:48:02;6.10;;;3.50;;
8861;SDS011;4799;50.996;4.754;2024-02-16T07:50:30;4.83;;;3.63;;
8861;SDS011;4799;50.996;4.754;2024-02-16T07:52:56;6.83;;;3.90;;
8861;SDS011;4799;50.996;4.754;2024-02-16T07:55:22;6.80;;;4.00;;
8861;SDS011;4799;50.996;4.754;2024-02-16T07:57:49;5.63;;;4.03;;
8861;SDS011;4799;50.996;4.754;2024-02-16T08:00:18;4.33;;;3.67;;
8861;SDS011;4799;50.996;4.754;2024-02-16T08:02:45;6.43;;;3.50;;
8861;SDS011;4799;50.996;4.754;2024-02-16T08:05:11;8.17;;;4.00;;
8861;SDS011;4799;50.996;4.754;2024-02-16T08:07:41;5.17;;;3.73;;
8861;SDS011;4799;50.996;4.754;2024-02-16T08:10:07;6.33;;;3.87;;
8861;SDS011;4799;50.996;4.754;2024-02-16T08:12:34;6.10;;;4.00;;
8861;SDS011;4799;50.996;4.754;2024-02-16T08:15:04;5.97;;;3.90;;
8861;SDS011;4799;50.996;4.754;2024-02-16T08:17:32;6.27;;;3.70;;
8861;SDS011;4799;50.996;4.754;2024-02-16T08:19:59;7.50;;;3.90;;
8861;SDS011;4799;50.996;4.754;2024-02-16T08:22:25;7.57;;;3.73;;
8861;SDS011;4799;50.996;4.754;2024-02-16T08:24:51;7.57;;;3.80;;
8861;SDS011;4799;50.996;4.754;2024-02-16T08:27:17;6.10;;;3.70;;
8861;SDS011;4799;50.996;4.754;2024-02-16T08:29:43;7.97;;;4.07;;
8861;SDS011;4799;50.996;4.754;2024-02-16T08:32:08;6.20;;;3.97;;
8861;SDS011;4799;50.996;4.754;2024-02-16T08:34:35;9.70;;;4.07;;
8861;SDS011;4799;50.996;4.754;2024-02-16T08:37:04;5.60;;;4.07;;
8861;SDS011;4799;50.996;4.754;2024-02-16T08:39:31;6.97;;;3.87;;
8861;SDS011;4799;50.996;4.754;2024-02-16T08:41:59;6.57;;;4.10;;
8861;SDS011;4799;50.996;4.754;2024-02-16T08:44:25;6.23;;;4.20;;
8861;SDS011;4799;50.996;4.754;2024-02-16T08:46:51;7.27;;;3.70;;
8861;SDS011;4799;50.996;4.754;2024-02-16T08:49:18;6.90;;;4.30;;
8861;SDS011;4799;50.996;4.754;2024-02-16T08:51:44;6.43;;;4.17;;
8861;SDS011;4799;50.996;4.754;2024-02-16T08:54:10;6.23;;;4.00;;
8861;SDS011;4799;50.996;4.754;2024-02-16T08:56:36;5.43;;;4.13;;
8861;SDS011;4799;50.996;4.754;2024-02-16T08:59:07;6.97;;;3.97;;
8861;SDS011;4799;50.996;4.754;2024-02-16T09:01:33;7.53;;;4.20;;
8861;SDS011;4799;50.996;4.754;2024-02-16T09:04:00;6.57;;;4.07;;
8861;SDS011;4799;50.996;4.754;2024-02-16T09:06:26;7.43;;;4.27;;
8861;SDS011;4799;50.996;4.754;2024-02-16T09:08:53;4.30;;;3.73;;
8861;SDS011;4799;50.996;4.754;2024-02-16T09:11:19;6.63;;;4.17;;
8861;SDS011;4799;50.996;4.754;2024-02-16T09:13:45;4.47;;;3.70;;
8861;SDS011;4799;50.996;4.754;2024-02-16T09:16:11;8.23;;;4.50;;
8861;SDS011;4799;50.996;4.754;2024-02-16T09:18:36;5.67;;;4.50;;
8861;SDS011;4799;50.996;4.754;2024-02-16T09:21:03;6.83;;;4.43;;
8861;SDS011;4799;50.996;4.754;2024-02-16T09:23:29;7.17;;;4.37;;
8861;SDS011;4799;50.996;4.754;2024-02-16T09:25:55;6.27;;;4.33;;
8861;SDS011;4799;50.996;4.754;2024-02-16T09:28:20;10.70;;;4.97;;
8861;SDS011;4799;50.996;4.754;2024-02-16T09:30:46;8.40;;;5.03;;
8861;SDS011;4799;50.996;4.754;2024-02-16T09:33:12;5.80;;;4.50;;
8861;SDS011;4799;50.996;4.754;2024-02-16T09:35:41;8.03;;;4.63;;
8861;SDS011;4799;50.996;4.754;2024-02-16T09:38:07;8.53;;;4.83;;
8861;SDS011;4799;50.996;4.754;2024-02-16T09:40:35;6.60;;;4.47;;
8861;SDS011;4799;50.996;4.754;2024-02-16T09:43:02;9.03;;;4.80;;
8861;SDS011;4799;50.996;4.754;2024-02-16T09:45:28;8.20;;;5.33;;
8861;SDS011;4799;50.996;4.754;2024-02-16T09:47:55;6.90;;;4.83;;
8861;SDS011;4799;50.996;4.754;2024-02-16T09:50:22;7.10;;;4.90;;
8861;SDS011;4799;50.996;4.754;2024-02-16T09:52:49;8.30;;;5.00;;
8861;SDS011;4799;50.996;4.754;2024-02-16T09:55:16;6.90;;;4.90;;
8861;SDS011;4799;50.996;4.754;2024-02-16T09:57:42;10.20;;;5.27;;
8861;SDS011;4799;50.996;4.754;2024-02-16T10:00:09;9.53;;;5.70;;
8861;SDS011;4799;50.996;4.754;2024-02-16T10:02:45;11.10;;;5.47;;
8861;SDS011;4799;50.996;4.754;2024-02-16T10:07:41;8.43;;;5.17;;
8861;SDS011;4799;50.996;4.754;2024-02-16T10:10:20;7.10;;;5.20;;
8861;SDS011;4799;50.996;4.754;2024-02-16T10:12:49;8.83;;;5.70;;
8861;SDS011;4799;50.996;4.754;2024-02-16T10:15:25;7.63;;;5.90;;
8861;SDS011;4799;50.996;4.754;2024-02-16T10:18:00;8.17;;;5.67;;
8861;SDS011;4799;50.996;4.754;2024-02-16T10:20:26;7.87;;;5.90;;
8861;SDS011;4799;50.996;4.754;2024-02-16T10:23:08;10.53;;;6.43;;
8861;SDS011;4799;50.996;4.754;2024-02-16T10:25:35;9.43;;;5.70;;
8861;SDS011;4799;50.996;4.754;2024-02-16T10:28:06;8.07;;;5.83;;
8861;SDS011;4799;50.996;4.754;2024-02-16T10:30:37;10.47;;;6.17;;
8861;SDS011;4799;50.996;4.754;2024-02-16T10:33:07;12.47;;;6.33;;
8861;SDS011;4799;50.996;4.754;2024-02-16T10:35:36;10.07;;;6.53;;
8861;SDS011;4799;50.996;4.754;2024-02-16T10:38:02;11.70;;;6.70;;
8861;SDS011;4799;50.996;4.754;2024-02-16T10:40:32;8.77;;;6.63;;
8861;SDS011;4799;50.996;4.754;2024-02-16T10:43:00;14.43;;;6.73;;
8861;SDS011;4799;50.996;4.754;2024-02-16T10:45:29;10.63;;;6.50;;
8861;SDS011;4799;50.996;4.754;2024-02-16T10:47:57;10.90;;;6.60;;
8861;SDS011;4799;50.996;4.754;2024-02-16T10:50:23;9.17;;;6.03;;
8861;SDS011;4799;50.996;4.754;2024-02-16T10:52:48;10.00;;;6.80;;
8861;SDS011;4799;50.996;4.754;2024-02-16T10:55:15;11.03;;;6.67;;
8861;SDS011;4799;50.996;4.754;2024-02-16T10:57:41;11.37;;;6.43;;
8861;SDS011;4799;50.996;4.754;2024-02-16T11:00:07;8.47;;;6.57;;
8861;SDS011;4799;50.996;4.754;2024-02-16T11:02:53;9.97;;;6.70;;
8861;SDS011;4799;50.996;4.754;2024-02-16T11:08:11;9.07;;;6.63;;
8861;SDS011;4799;50.996;4.754;2024-02-16T11:10:38;9.20;;;6.73;;
8861;SDS011;4799;50.996;4.754;2024-02-16T11:13:04;9.53;;;6.53;;
8861;SDS011;4799;50.996;4.754;2024-02-16T11:15:30;11.60;;;6.87;;
8861;SDS011;4799;50.996;4.754;2024-02-16T11:17:58;10.37;;;7.03;;
8861;SDS011;4799;50.996;4.754;2024-02-16T11:20:26;12.37;;;7.77;;
8861;SDS011;4799;50.996;4.754;2024-02-16T11:22:52;10.63;;;7.10;;
8861;SDS011;4799;50.996;4.754;2024-02-16T11:25:18;11.73;;;7.70;;
8861;SDS011;4799;50.996;4.754;2024-02-16T11:27:55;10.53;;;7.37;;
8861;SDS011;4799;50.996;4.754;2024-02-16T11:30:21;10.57;;;7.67;;
8861;SDS011;4799;50.996;4.754;2024-02-16T11:32:47;13.23;;;7.73;;
8861;SDS011;4799;50.996;4.754;2024-02-16T11:35:12;11.37;;;7.53;;
8861;SDS011;4799;50.996;4.754;2024-02-16T11:37:38;13.90;;;7.67;;
8861;SDS011;4799;50.996;4.754;2024-02-16T11:40:04;10.00;;;7.43;;
8861;SDS011;4799;50.996;4.754;2024-02-16T11:42:33;10.23;;;7.37;;
8861;SDS011;4799;50.996;4.754;2024-02-16T11:45:00;11.20;;;7.77;;
8861;SDS011;4799;50.996;4.754;2024-02-16T11:47:25;8.57;;;7.67;;
8861;SDS011;4799;50.996;4.754;2024-02-16T11:52:31;10.23;;;7.17;;
8861;SDS011;4799;50.996;4.754;2024-02-16T11:54:57;11.80;;;8.20;;
8861;SDS011;4799;50.996;4.754;2024-02-16T11:57:26;14.37;;;8.63;;
8861;SDS011;4799;50.996;4.754;2024-02-16T11:59:52;11.13;;;9.00;;
8861;SDS011;4799;50.996;4.754;2024-02-16T12:02:19;11.50;;;8.50;;
8861;SDS011;4799;50.996;4.754;2024-02-16T12:04:57;9.67;;;8.10;;
8861;SDS011;4799;50.996;4.754;2024-02-16T12:07:25;11.63;;;8.83;;
8861;SDS011;4799;50.996;4.754;2024-02-16T12:09:59;9.80;;;8.43;;
8861;SDS011;4799;50.996;4.754;2024-02-16T12:12:26;11.50;;;8.27;;
8861;SDS011;4799;50.996;4.754;2024-02-16T12:14:53;9.07;;;7.93;;
8861;SDS011;4799;50.996;4.754;2024-02-16T12:17:19;9.67;;;8.30;;
8861;SDS011;4799;50.996;4.754;2024-02-16T12:19:45;10.97;;;7.80;;
8861;SDS011;4799;50.996;4.754;2024-02-16T12:22:16;9.10;;;8.00;;
8861;SDS011;4799;50.996;4.754;2024-02-16T12:24:44;9.93;;;8.57;;
8861;SDS011;4799;50.996;4.754;2024-02-16T12:27:13;9.23;;;8.33;;
8861;SDS011;4799;50.996;4.754;2024-02-16T12:29:39;9.50;;;8.20;;
8861;SDS011;4799;50.996;4.754;2024-02-16T12:32:05;8.67;;;7.87;;
8861;SDS011;4799;50.996;4.754;2024-02-16T12:34:32;9.03;;;7.93;;
8861;SDS011;4799;50.996;4.754;2024-02-16T12:36:58;8.87;;;7.97;;
8861;SDS011;4799;50.996;4.754;2024-02-16T12:39:24;9.27;;;8.33;;
8861;SDS011;4799;50.996;4.754;2024-02-16T12:41:50;10.17;;;9.13;;
8861;SDS011;4799;50.996;4.754;2024-02-16T12:44:15;11.53;;;8.23;;
8861;SDS011;4799;50.996;4.754;2024-02-16T12:46:41;8.80;;;8.00;;
8861;SDS011;4799;50.996;4.754;2024-02-16T12:49:08;7.97;;;7.27;;
8861;SDS011;4799;50.996;4.754;2024-02-16T12:51:34;8.43;;;7.63;;
8861;SDS011;4799;50.996;4.754;2024-02-16T12:54:00;8.27;;;7.47;;
8861;SDS011;4799;50.996;4.754;2024-02-16T12:56:29;8.83;;;8.07;;
8861;SDS011;4799;50.996;4.754;2024-02-16T12:58:55;8.10;;;7.30;;
8861;SDS011;4799;50.996;4.754;2024-02-16T13:01:21;8.20;;;7.50;;
8861;SDS011;4799;50.996;4.754;2024-02-16T13:03:47;8.23;;;7.43;;
8861;SDS011;4799;50.996;4.754;2024-02-16T13:06:13;8.53;;;7.80;;
8861;SDS011;4799;50.996;4.754;2024-02-16T13:08:39;9.10;;;8.30;;
8861;SDS011;4799;50.996;4.754;2024-02-16T13:11:05;9.10;;;8.30;;
8861;SDS011;4799;50.996;4.754;2024-02-16T13:13:31;10.13;;;9.33;;
8861;SDS011;4799;50.996;4.754;2024-02-16T13:15:57;10.00;;;9.10;;
8861;SDS011;4799;50.996;4.754;2024-02-16T13:18:24;10.83;;;9.90;;
8861;SDS011;4799;50.996;4.754;2024-02-16T13:20:50;13.53;;;12.33;;
8861;SDS011;4799;50.996;4.754;2024-02-16T13:23:15;14.37;;;13.07;;
8861;SDS011;4799;50.996;4.754;2024-02-16T13:25:41;15.70;;;14.30;;
8861;SDS011;4799;50.996;4.754;2024-02-16T13:28:07;15.50;;;14.10;;
8861;SDS011;4799;50.996;4.754;2024-02-16T13:30:32;16.53;;;15.03;;
8861;SDS011;4799;50.996;4.754;2024-02-16T13:32:58;16.87;;;15.33;;
8861;SDS011;4799;50.996;4.754;2024-02-16T13:35:24;18.27;;;16.57;;
8861;SDS011;4799;50.996;4.754;2024-02-16T13:37:51;17.63;;;16.13;;
8861;SDS011;4799;50.996;4.754;2024-02-16T13:40:17;18.77;;;17.07;;
8861;SDS011;4799;50.996;4.754;2024-02-16T13:42:43;18.83;;;17.23;;
8861;SDS011;4799;50.996;4.754;2024-02-16T13:45:10;18.73;;;17.13;;
8861;SDS011;4799;50.996;4.754;2024-02-16T13:47:36;19.03;;;17.43;;
8861;SDS011;4799;50.996;4.754;2024-02-16T13:50:05;19.63;;;17.80;;
8861;SDS011;4799;50.996;4.754;2024-02-16T13:52:31;20.20;;;18.40;;
8861;SDS011;4799;50.996;4.754;2024-02-16T13:54:57;20.57;;;18.87;;
8861;SDS011;4799;50.996;4.754;2024-02-16T13:57:23;20.93;;;18.97;;
8861;SDS011;4799;50.996;4.754;2024-02-16T13:59:49;20.10;;;18.40;;
8861;SDS011;4799;50.996;4.754;2024-02-16T14:02:15;20.07;;;18.37;;
8861;SDS011;4799;50.996;4.754;2024-02-16T14:04:41;20.10;;;18.40;;
8861;SDS011;4799;50.996;4.754;2024-02-16T14:07:07;18.27;;;16.80;;
8861;SDS011;4799;50.996;4.754;2024-02-16T14:09:32;18.53;;;16.93;;
8861;SDS011;4799;50.996;4.754;2024-02-16T14:11:58;16.40;;;15.00;;
8861;SDS011;4799;50.996;4.754;2024-02-16T14:14:25;16.50;;;15.00;;
8861;SDS011;4799;50.996;4.754;2024-02-16T14:16:51;16.37;;;14.80;;
8861;SDS011;4799;50.996;4.754;2024-02-16T14:19:17;14.53;;;13.33;;
8861;SDS011;4799;50.996;4.754;2024-02-16T14:21:43;13.20;;;12.10;;
8861;SDS011;4799;50.996;4.754;2024-02-16T14:24:08;12.18;;;11.18;;
8861;SDS011;4799;50.996;4.754;2024-02-16T14:26:36;11.37;;;10.43;;
8861;SDS011;4799;50.996;4.754;2024-02-16T14:29:02;10.57;;;9.70;;
8861;SDS011;4799;50.996;4.754;2024-02-16T14:31:29;9.83;;;9.03;;
8861;SDS011;4799;50.996;4.754;2024-02-16T14:33:55;9.27;;;8.57;;
8861;SDS011;4799;50.996;4.754;2024-02-16T14:36:21;8.53;;;7.93;;
8861;SDS011;4799;50.996;4.754;2024-02-16T14:38:47;8.97;;;7.33;;
8861;SDS011;4799;50.996;4.754;2024-02-16T14:41:13;7.97;;;7.20;;
8861;SDS011;4799;50.996;4.754;2024-02-16T14:43:41;7.80;;;7.10;;
8861;SDS011;4799;50.996;4.754;2024-02-16T14:46:07;7.33;;;6.73;;
8861;SDS011;4799;50.996;4.754;2024-02-16T14:48:34;6.30;;;5.80;;
8861;SDS011;4799;50.996;4.754;2024-02-16T14:51:00;6.50;;;5.97;;
8861;SDS011;4799;50.996;4.754;2024-02-16T14:53:27;6.73;;;6.13;;
8861;SDS011;4799;50.996;4.754;2024-02-16T14:55:55;6.27;;;5.70;;
8861;SDS011;4799;50.996;4.754;2024-02-16T14:58:21;6.20;;;5.70;;
8861;SDS011;4799;50.996;4.754;2024-02-16T15:00:47;6.77;;;6.10;;
8861;SDS011;4799;50.996;4.754;2024-02-16T15:03:12;6.13;;;5.60;;
8861;SDS011;4799;50.996;4.754;2024-02-16T15:05:38;6.30;;;5.80;;
8861;SDS011;4799;50.996;4.754;2024-02-16T15:08:05;6.43;;;5.93;;
8861;SDS011;4799;50.996;4.754;2024-02-16T15:10:31;7.00;;;6.40;;
8861;SDS011;4799;50.996;4.754;2024-02-16T15:12:57;7.27;;;6.77;;
8861;SDS011;4799;50.996;4.754;2024-02-16T15:15:23;7.40;;;6.80;;
8861;SDS011;4799;50.996;4.754;2024-02-16T15:17:48;7.53;;;6.83;;